createdAt,value
2023-03-06T00:01:01.295Z,5.75
2023-03-06T00:04:03.002Z,5.93
2023-03-06T00:07:04.696Z,5.18
2023-03-06T00:10:07.016Z,5.65
2023-03-06T00:13:14.030Z,6.30
2023-03-06T00:16:15.656Z,5.80
2023-03-06T00:19:17.337Z,5.78
2023-03-06T00:22:19.079Z,5.82
2023-03-06T00:25:21.580Z,6.15
2023-03-06T00:28:23.484Z,6.20
2023-03-06T00:31:25.224Z,5.90
2023-03-06T00:34:27.199Z,6.68
2023-03-06T00:37:28.827Z,6.20
2023-03-06T00:40:30.471Z,6.40
2023-03-06T00:43:32.135Z,6.18
2023-03-06T00:46:33.775Z,6.45
2023-03-06T00:49:35.657Z,5.93
2023-03-06T00:52:37.422Z,5.85
2023-03-06T00:55:39.075Z,7.22
2023-03-06T00:58:40.800Z,6.30
2023-03-06T01:01:42.480Z,6.65
2023-03-06T01:04:44.324Z,6.70
2023-03-06T01:07:46.062Z,6.70
2023-03-06T01:10:47.694Z,6.22
2023-03-06T01:13:49.744Z,6.25
2023-03-06T01:16:51.471Z,5.70
2023-03-06T01:19:53.127Z,5.90
2023-03-06T01:22:56.637Z,6.05
2023-03-06T01:25:59.086Z,5.80
2023-03-06T01:29:01.322Z,5.82
2023-03-06T01:32:03.084Z,6.20
2023-03-06T01:35:05.630Z,5.62
2023-03-06T01:38:07.370Z,6.18
2023-03-06T01:41:10.958Z,6.40
2023-03-06T01:44:13.800Z,5.43
2023-03-06T01:47:15.532Z,6.15
2023-03-06T01:50:17.343Z,5.90
2023-03-06T01:53:20.186Z,6.20
2023-03-06T01:56:22.968Z,7.45
2023-03-06T01:59:27.009Z,6.65
2023-03-06T02:02:29.019Z,5.90
2023-03-06T02:05:31.211Z,5.55
2023-03-06T02:08:33.499Z,5.60
2023-03-06T02:11:35.153Z,5.70
2023-03-06T02:14:38.188Z,5.78
2023-03-06T02:17:41.705Z,5.90
2023-03-06T02:21:00.448Z,6.35
2023-03-06T02:24:17.361Z,5.53
2023-03-06T02:27:19.983Z,5.37
2023-03-06T02:30:23.690Z,5.85
2023-03-06T02:33:29.342Z,6.07
2023-03-06T02:36:32.660Z,5.95
2023-03-06T02:39:38.201Z,6.03
2023-03-06T02:42:47.223Z,5.75
2023-03-06T02:45:51.310Z,5.82
2023-03-06T02:48:53.210Z,5.78
2023-03-06T02:51:54.905Z,5.97
2023-03-06T02:54:56.690Z,6.35
2023-03-06T02:57:58.512Z,6.53
2023-03-06T03:01:00.220Z,6.75
2023-03-06T03:04:01.861Z,6.80
2023-03-06T03:07:03.566Z,6.25
2023-03-06T03:10:05.648Z,5.75
2023-03-06T03:13:07.291Z,6.22
2023-03-06T03:16:14.180Z,5.65
2023-03-06T03:19:15.818Z,5.87
2023-03-06T03:22:18.506Z,5.75
2023-03-06T03:25:20.745Z,5.75
2023-03-06T03:28:22.389Z,5.68
2023-03-06T03:31:24.252Z,5.62
2023-03-06T03:34:26.237Z,5.60
2023-03-06T03:37:28.037Z,5.68
2023-03-06T03:40:29.796Z,5.37
2023-03-06T03:43:32.189Z,5.25
2023-03-06T03:46:33.966Z,5.85
2023-03-06T03:49:35.638Z,5.65
2023-03-06T03:52:37.399Z,5.25
2023-03-06T03:55:39.448Z,5.78
2023-03-06T03:58:41.117Z,5.65
2023-03-06T04:01:42.829Z,6.12
2023-03-06T04:04:44.538Z,5.93
2023-03-06T04:07:46.377Z,5.20
2023-03-06T04:10:48.044Z,5.85
2023-03-06T04:13:49.686Z,6.68
2023-03-06T04:16:51.363Z,5.50
2023-03-06T04:19:53.179Z,5.60
2023-03-06T04:22:54.790Z,6.00
2023-03-06T04:25:56.476Z,5.53
2023-03-06T04:28:58.660Z,6.45
2023-03-06T04:32:00.340Z,5.78
2023-03-06T04:35:02.356Z,5.65
2023-03-06T04:38:04.528Z,5.72
2023-03-06T04:41:06.161Z,5.32
2023-03-06T04:44:08.622Z,5.97
2023-03-06T04:47:11.236Z,6.03
2023-03-06T04:50:13.270Z,6.18
2023-03-06T04:53:16.787Z,5.80
2023-03-06T04:56:18.864Z,5.45
2023-03-06T04:59:20.565Z,6.82
2023-03-06T05:02:24.290Z,9.60
2023-03-06T05:05:26.698Z,8.20
2023-03-06T05:08:28.527Z,7.22
2023-03-06T05:11:30.539Z,6.82
2023-03-06T05:14:32.305Z,6.93
2023-03-06T05:17:34.182Z,9.10
2023-03-06T05:20:35.809Z,10.27
2023-03-06T05:23:41.106Z,11.60
2023-03-06T05:26:42.756Z,13.48
2023-03-06T05:29:44.495Z,10.52
2023-03-06T05:32:46.212Z,8.70
2023-03-06T05:35:48.822Z,8.32
2023-03-06T05:38:50.500Z,10.25
2023-03-06T05:41:52.134Z,6.82
2023-03-06T05:44:53.794Z,6.72
2023-03-06T05:47:55.431Z,6.68
2023-03-06T05:50:58.348Z,6.90
2023-03-06T05:53:59.982Z,7.60
2023-03-06T05:57:02.138Z,13.20
2023-03-06T06:00:04.474Z,11.90
2023-03-06T06:03:06.138Z,7.78
2023-03-06T06:06:09.772Z,6.30
2023-03-06T06:09:13.849Z,6.50
2023-03-06T06:12:15.677Z,6.70
2023-03-06T06:15:17.421Z,6.37
2023-03-06T06:18:19.118Z,5.95
2023-03-06T06:21:21.046Z,7.28
2023-03-06T06:24:25.124Z,6.22
2023-03-06T06:27:26.816Z,6.62
2023-03-06T06:30:28.579Z,6.25
2023-03-06T06:33:30.239Z,6.70
2023-03-06T06:36:32.510Z,6.32
2023-03-06T06:39:34.141Z,7.15
2023-03-06T06:42:39.909Z,6.65
2023-03-06T06:45:44.215Z,6.05
2023-03-06T06:48:49.349Z,6.50
2023-03-06T06:51:50.985Z,6.28
2023-03-06T06:54:53.171Z,6.50
2023-03-06T06:57:54.836Z,6.25
2023-03-06T07:00:56.492Z,6.70
2023-03-06T07:03:58.281Z,7.22
2023-03-06T07:07:00.256Z,6.60
2023-03-06T07:10:02.801Z,6.40
2023-03-06T07:13:04.454Z,6.28
2023-03-06T07:16:06.622Z,6.37
2023-03-06T07:19:08.682Z,6.90
2023-03-06T07:22:10.393Z,7.10
2023-03-06T07:25:12.598Z,7.80
2023-03-06T07:28:14.433Z,12.65
2023-03-06T07:31:16.211Z,6.35
2023-03-06T07:34:17.881Z,7.03
2023-03-06T07:37:19.876Z,7.45
2023-03-06T07:40:22.092Z,6.87
2023-03-06T07:43:23.746Z,9.32
2023-03-06T07:46:25.536Z,9.60
2023-03-06T07:49:27.185Z,9.02
2023-03-06T07:52:29.463Z,8.23
2023-03-06T07:55:31.128Z,11.02
2023-03-06T07:58:32.744Z,10.45
2023-03-06T08:01:36.262Z,7.37
2023-03-06T08:04:38.239Z,6.85
2023-03-06T08:07:39.937Z,7.90
2023-03-06T08:10:46.854Z,7.03
2023-03-06T08:13:49.384Z,7.95
2023-03-06T08:16:51.330Z,9.32
2023-03-06T08:19:52.970Z,7.35
2023-03-06T08:22:54.629Z,7.87
2023-03-06T08:26:01.119Z,8.75
2023-03-06T08:29:02.952Z,8.63
2023-03-06T08:32:04.922Z,8.30
2023-03-06T08:35:07.189Z,9.25
2023-03-06T08:38:08.864Z,8.40
2023-03-06T08:41:10.577Z,9.13
2023-03-06T08:44:12.916Z,8.23
2023-03-06T08:47:14.579Z,8.68
2023-03-06T08:50:16.400Z,8.00
2023-03-06T08:53:18.389Z,8.38
2023-03-06T08:56:20.020Z,8.65
2023-03-06T08:59:21.668Z,8.45
2023-03-06T09:02:23.417Z,8.95
2023-03-06T09:05:25.203Z,7.85
2023-03-06T09:08:26.852Z,9.25
2023-03-06T09:11:30.314Z,9.90
2023-03-06T09:14:32.186Z,9.65
2023-03-06T09:17:33.861Z,11.02
2023-03-06T09:20:35.621Z,8.98
2023-03-06T09:23:39.607Z,15.25
2023-03-06T09:26:46.206Z,8.30
2023-03-06T09:29:48.806Z,12.32
2023-03-06T09:32:50.441Z,12.93
2023-03-06T09:35:55.080Z,16.85
2023-03-06T09:38:56.890Z,7.70
2023-03-06T09:41:59.205Z,9.27
2023-03-06T09:45:04.713Z,8.35
2023-03-06T09:48:15.017Z,8.50
2023-03-06T09:51:18.830Z,8.07
2023-03-06T09:54:32.883Z,7.55
2023-03-06T09:57:42.782Z,8.93
2023-03-06T10:01:24.948Z,7.55
2023-03-06T10:04:42.640Z,7.35
2023-03-06T10:08:06.430Z,8.05
2023-03-06T10:11:10.835Z,8.07
2023-03-06T10:14:12.403Z,7.53
2023-03-06T10:17:20.822Z,8.70
2023-03-06T10:20:24.549Z,12.75
2023-03-06T10:23:49.144Z,7.85
2023-03-06T10:27:29.584Z,10.60
2023-03-06T10:30:44.739Z,10.40
2023-03-06T10:33:58.510Z,8.73
2023-03-06T10:37:11.842Z,7.50
2023-03-06T10:40:20.093Z,10.25
2023-03-06T10:43:23.741Z,9.02
2023-03-06T10:46:37.377Z,9.15
2023-03-06T10:49:39.119Z,8.60
2023-03-06T10:52:40.759Z,9.73
2023-03-06T10:55:52.184Z,8.10
2023-03-06T10:59:12.484Z,8.60
2023-03-06T11:02:26.057Z,8.75
2023-03-06T11:05:27.731Z,8.35
2023-03-06T11:08:30.772Z,8.98
2023-03-06T11:11:37.793Z,8.30
2023-03-06T11:14:39.767Z,8.85
2023-03-06T11:18:02.920Z,11.45
2023-03-06T11:21:23.398Z,9.05
2023-03-06T11:24:25.260Z,9.75
2023-03-06T11:27:34.601Z,7.47
2023-03-06T11:30:43.082Z,8.10
2023-03-06T11:33:50.586Z,8.88
2023-03-06T11:40:28.957Z,7.62
2023-03-06T11:44:00.832Z,8.50
2023-03-06T11:47:17.254Z,9.57
2023-03-06T11:50:25.637Z,10.07
2023-03-06T11:53:37.000Z,9.55
2023-03-06T11:56:51.780Z,9.40
2023-03-06T12:00:18.300Z,8.25
2023-03-06T12:03:45.056Z,8.85
2023-03-06T12:07:11.055Z,8.77
2023-03-06T12:10:15.585Z,8.93
2023-03-06T12:14:05.287Z,9.35
2023-03-06T12:17:19.397Z,10.02
2023-03-06T12:20:56.149Z,9.38
2023-03-06T12:24:29.819Z,9.80
2023-03-06T12:27:34.434Z,9.20
2023-03-06T12:31:20.254Z,8.55
2023-03-06T12:34:43.709Z,9.45
2023-03-06T12:38:00.050Z,9.10
2023-03-06T12:41:27.742Z,9.50
2023-03-06T12:45:20.649Z,8.90
2023-03-06T12:48:27.525Z,8.82
2023-03-06T12:51:30.209Z,9.30
2023-03-06T12:54:37.281Z,10.07
2023-03-06T12:57:38.945Z,8.10
2023-03-06T13:01:03.705Z,7.97
2023-03-06T13:04:05.696Z,10.00
2023-03-06T13:07:22.818Z,9.18
2023-03-06T13:10:35.835Z,9.68
2023-03-06T13:13:46.140Z,10.13
2023-03-06T13:16:47.833Z,8.77
2023-03-06T13:20:15.642Z,12.05
2023-03-06T13:23:29.612Z,9.57
2023-03-06T13:26:31.225Z,7.90
2023-03-06T13:29:35.911Z,10.77
2023-03-06T13:32:37.639Z,7.28
2023-03-06T13:35:42.297Z,6.62
2023-03-06T13:38:43.978Z,7.55
2023-03-06T13:41:59.306Z,7.22
2023-03-06T13:45:17.910Z,6.55
2023-03-06T13:48:46.224Z,7.07
2023-03-06T13:51:53.688Z,8.40
2023-03-06T13:55:24.177Z,7.37
2023-03-06T13:58:50.814Z,7.40
2023-03-06T14:02:10.067Z,7.75
2023-03-06T14:05:17.098Z,7.62
2023-03-06T14:08:22.692Z,8.30
2023-03-06T14:11:25.173Z,8.48
2023-03-06T14:14:36.044Z,8.48
2023-03-06T14:17:39.189Z,8.10
2023-03-06T14:20:48.488Z,8.95
2023-03-06T14:24:00.399Z,9.45
2023-03-06T14:27:02.698Z,13.60
2023-03-06T14:30:13.620Z,11.95
2023-03-06T14:33:44.501Z,13.02
2023-03-06T14:36:49.207Z,19.83
2023-03-06T14:39:51.867Z,22.02
2023-03-06T14:43:15.675Z,22.45
2023-03-06T14:46:22.480Z,19.27
2023-03-06T14:49:26.225Z,17.30
2023-03-06T14:52:28.341Z,17.55
2023-03-06T14:55:32.855Z,21.87
2023-03-06T14:58:40.386Z,17.67
2023-03-06T15:04:49.156Z,22.15
2023-03-06T15:07:52.812Z,9.20
2023-03-06T15:10:59.684Z,9.55
2023-03-06T15:14:03.872Z,9.07
2023-03-06T15:17:41.923Z,18.12
2023-03-06T15:20:50.215Z,26.27
2023-03-06T15:23:54.406Z,22.10
2023-03-06T15:27:07.091Z,39.17
2023-03-06T15:30:35.738Z,20.85
2023-03-06T15:33:37.746Z,13.85
2023-03-06T15:36:48.436Z,26.77
2023-03-06T15:40:04.403Z,22.15
2023-03-06T15:43:10.933Z,27.08
2023-03-06T15:46:13.321Z,30.67
2023-03-06T15:49:18.367Z,35.83
2023-03-06T15:52:23.199Z,34.92
2023-03-06T15:55:26.208Z,42.90
2023-03-06T15:58:31.669Z,38.42
2023-03-06T16:01:36.081Z,12.93
2023-03-06T16:04:38.696Z,12.15
2023-03-06T16:07:40.494Z,10.80
2023-03-06T16:10:45.090Z,11.02
2023-03-06T16:13:46.977Z,10.13
2023-03-06T16:16:49.706Z,10.63
2023-03-06T16:19:51.681Z,11.65
2023-03-06T16:22:56.705Z,11.45
2023-03-06T16:25:58.444Z,11.27
2023-03-06T16:29:00.950Z,13.05
2023-03-06T16:32:03.214Z,11.82
2023-03-06T16:35:05.432Z,12.30
2023-03-06T16:38:07.793Z,12.80
2023-03-06T16:41:12.139Z,14.00
2023-03-06T16:44:13.875Z,12.60
2023-03-06T16:47:17.271Z,13.75
2023-03-06T16:50:28.735Z,13.15
2023-03-06T16:53:30.683Z,18.77
2023-03-06T16:56:32.342Z,22.35
2023-03-06T16:59:34.194Z,25.40
2023-03-06T17:02:36.586Z,22.42
2023-03-06T17:05:39.399Z,15.93
2023-03-06T17:08:41.726Z,15.23
2023-03-06T17:11:50.054Z,15.50
2023-03-06T17:14:56.540Z,16.52
2023-03-06T17:17:58.330Z,26.08
2023-03-06T17:21:00.415Z,30.90
2023-03-06T17:24:04.144Z,14.77
2023-03-06T17:27:06.062Z,16.40
2023-03-06T17:30:09.206Z,12.55
2023-03-06T17:33:11.043Z,23.77
2023-03-06T17:36:16.100Z,14.70
2023-03-06T17:39:17.841Z,13.82
2023-03-06T17:42:19.709Z,14.18
2023-03-06T17:45:21.891Z,16.45
2023-03-06T17:48:24.043Z,13.20
2023-03-06T17:51:26.480Z,14.60
2023-03-06T17:54:30.196Z,14.93
2023-03-06T17:57:32.389Z,14.20
2023-03-06T18:00:34.409Z,12.65
2023-03-06T18:03:38.499Z,31.23
2023-03-06T18:06:41.005Z,22.55
2023-03-06T18:09:43.596Z,20.55
2023-03-06T18:12:47.538Z,55.42
2023-03-06T18:15:49.763Z,19.65
2023-03-06T18:18:56.528Z,14.02
2023-03-06T18:21:58.724Z,12.85
2023-03-06T18:25:01.540Z,12.77
2023-03-06T18:28:04.040Z,14.60
2023-03-06T18:31:09.232Z,16.37
2023-03-06T18:34:14.182Z,16.10
2023-03-06T18:37:17.338Z,14.73
2023-03-06T18:40:20.304Z,12.45
2023-03-06T18:43:24.178Z,14.87
2023-03-06T18:46:33.828Z,14.82
2023-03-06T18:49:37.471Z,13.18
2023-03-06T18:52:41.238Z,12.48
2023-03-06T18:55:51.740Z,13.20
2023-03-06T18:58:54.446Z,12.45
2023-03-06T19:01:57.811Z,12.70
2023-03-06T19:05:00.190Z,11.98
2023-03-06T19:08:05.718Z,11.43
2023-03-06T19:11:11.989Z,10.82
2023-03-06T19:14:15.330Z,11.65
2023-03-06T19:17:18.318Z,10.82
2023-03-06T19:20:20.686Z,10.02
2023-03-06T19:23:24.408Z,12.95
2023-03-06T19:26:29.859Z,13.82
2023-03-06T19:29:34.505Z,14.95
2023-03-06T19:32:37.091Z,12.30
2023-03-06T19:35:39.748Z,14.25
2023-03-06T19:38:42.817Z,13.23
2023-03-06T19:41:51.251Z,11.30
2023-03-06T19:48:01.155Z,15.77
2023-03-06T19:51:05.164Z,17.77
2023-03-06T19:54:07.812Z,16.52
2023-03-06T19:57:11.716Z,16.73
2023-03-06T20:00:14.991Z,14.70
2023-03-06T20:03:16.903Z,12.93
2023-03-06T20:06:21.079Z,12.00
2023-03-06T20:09:24.700Z,11.60
2023-03-06T20:12:29.208Z,13.18
2023-03-06T20:15:35.430Z,12.73
2023-03-06T20:18:39.235Z,12.45
2023-03-06T20:21:41.477Z,12.52
2023-03-06T20:24:44.059Z,12.52
2023-03-06T20:27:48.221Z,13.13
2023-03-06T20:30:51.073Z,12.55
2023-03-06T20:33:54.976Z,13.15
2023-03-06T20:36:58.556Z,13.75
2023-03-06T20:40:00.991Z,14.27
2023-03-06T20:43:03.764Z,13.80
2023-03-06T20:46:07.388Z,15.23
2023-03-06T20:49:11.648Z,13.60
2023-03-06T20:52:14.362Z,14.30
2023-03-06T20:55:16.927Z,14.68
2023-03-06T20:58:19.406Z,12.82
2023-03-06T21:01:27.486Z,12.68
2023-03-06T21:04:29.870Z,14.02
2023-03-06T21:07:32.000Z,15.05
2023-03-06T21:10:34.158Z,21.08
2023-03-06T21:13:36.031Z,15.63
2023-03-06T21:16:39.318Z,13.82
2023-03-06T21:19:42.038Z,16.73
2023-03-06T21:22:43.832Z,17.10
2023-03-06T21:25:49.706Z,27.62
2023-03-06T21:28:52.246Z,16.02
2023-03-06T21:31:53.942Z,13.55
2023-03-06T21:34:56.158Z,13.95
2023-03-06T21:37:57.892Z,13.60
2023-03-06T21:41:19.191Z,14.68
2023-03-06T21:44:21.112Z,13.32
2023-03-06T21:47:22.756Z,14.10
2023-03-06T21:50:25.078Z,15.30
2023-03-06T21:53:26.715Z,20.27
2023-03-06T21:56:28.574Z,18.65
2023-03-06T21:59:30.290Z,18.42
2023-03-06T22:02:31.907Z,21.08
2023-03-06T22:05:33.583Z,21.10
2023-03-06T22:08:35.233Z,18.25
2023-03-06T22:11:37.445Z,17.25
2023-03-06T22:14:39.169Z,18.70
2023-03-06T22:17:41.681Z,18.10
2023-03-06T22:20:43.421Z,20.17
2023-03-06T22:23:52.609Z,16.42
2023-03-06T22:26:54.237Z,16.95
2023-03-06T22:29:56.091Z,18.02
2023-03-06T22:32:57.749Z,15.88
2023-03-06T22:36:02.736Z,16.25
2023-03-06T22:39:04.499Z,18.83
2023-03-06T22:42:06.221Z,17.35
2023-03-06T22:45:08.441Z,18.73
2023-03-06T22:48:11.284Z,18.83
2023-03-06T22:51:18.889Z,18.70
2023-03-06T22:54:20.568Z,19.50
2023-03-06T22:57:22.236Z,21.23
2023-03-06T23:00:23.890Z,18.67
2023-03-06T23:03:25.523Z,17.33
2023-03-06T23:06:31.211Z,19.75
2023-03-06T23:09:33.172Z,18.65
2023-03-06T23:12:34.864Z,18.98
2023-03-06T23:15:37.027Z,19.95
2023-03-06T23:18:39.923Z,17.77
2023-03-06T23:21:41.848Z,20.00
2023-03-06T23:24:43.492Z,21.33
2023-03-06T23:27:45.130Z,19.42
2023-03-06T23:30:46.838Z,19.00
2023-03-06T23:33:48.655Z,18.80
2023-03-06T23:36:50.481Z,18.92
2023-03-06T23:39:52.139Z,18.90
2023-03-06T23:42:53.764Z,18.35
2023-03-06T23:45:56.063Z,19.27
2023-03-06T23:48:57.707Z,19.48
2023-03-06T23:51:59.654Z,19.80
2023-03-06T23:55:01.349Z,19.00
2023-03-06T23:58:02.996Z,18.48
